African Highway — 3EOD8 — position and weather

sailwx.info

Track history (hours):
 
Tides and Currents Weather Stations Pressure Air Temp Water Temp Dewpoint Dewpoint Depression Visibility Wind Speed Wind Dir Waves Ship Positions

African Highway

Last reported at 2015-May-25 17:31 UTC. Time now 2015-May-25 17:39 UTC.
Position N 53°20' E 007°10'.

Length 154.5 m; beam 27.6 m.

Type: Cargo ship. MMSI: 353633000.

Date/timePositionNaut miles runAvg speedWind from/ knotsBaromVisibWave heightAir tempDewpointWater temp
2015-May-25 17:31N 53°20' E 007°10'0 0.0
2015-May-25 16:28N 53°20' E 007°10'2 2.3
2015-May-25 15:33N 53°20' E 007°06'1413.9
2015-May-25 14:33N 53°29' E 006°49'1616.2
2015-May-25 13:33N 53°37' E 006°25'9 9.0
2015-May-25 12:33N 53°38' E 006°10'9 9.0
2015-May-25 11:33N 53°42' E 005°56'1514.7
2015-May-25 10:33N 53°50' E 005°36'1716.5
2015-May-25 09:33N 53°55' E 005°09'1615.9
2015-May-25 08:33N 53°59' E 004°43'14315.3
2015-May-24 23:12N 53°34' E 000°44'1015.5
2015-May-24 22:34N 53°32' E 000°28'1211.8
2015-May-24 21:33N 53°33' E 000°08'8 7.6
2015-May-24 20:34N 53°35' W 000°04'0 0.0
2015-May-24 19:31N 53°35' W 000°04'0 0.0
2015-May-24 18:31N 53°35' W 000°04'0 0.0
2015-May-24 17:31N 53°35' W 000°04'0 0.0
2015-May-24 16:31N 53°35' W 000°04'0 0.0
2015-May-24 15:31N 53°35' W 000°04'0 0.0
2015-May-24 14:31N 53°35' W 000°04'0 0.0
2015-May-24 13:31N 53°35' W 000°04'0 0.0
2015-May-24 12:31N 53°35' W 000°04'0 0.0
2015-May-24 11:31N 53°35' W 000°04'0 0.0
2015-May-24 10:31N 53°35' W 000°04'0 0.0
2015-May-24 09:31N 53°35' W 000°04'0 0.0
2015-May-24 08:31N 53°35' W 000°04'0 0.0
2015-May-24 07:31N 53°35' W 000°04'0 0.0
2015-May-24 06:31N 53°35' W 000°04'0 0.0
2015-May-24 05:31N 53°35' W 000°04'0 0.0
2015-May-24 04:31N 53°35' W 000°04'0 0.0
2015-May-24 03:31N 53°35' W 000°04'0 0.0
2015-May-24 02:31N 53°35' W 000°04'0 0.0
2015-May-24 01:31N 53°35' W 000°04'0 0.0
2015-May-24 00:31N 53°35' W 000°04'0 0.0
2015-May-23 23:31N 53°35' W 000°04'0 0.0
2015-May-23 22:31N 53°35' W 000°04'0 0.0
2015-May-23 21:31N 53°35' W 000°04'2 2.5
2015-May-23 20:33N 53°35' W 000°00'10 9.7
2015-May-23 19:33N 53°33' E 000°16'7 6.8
2015-May-23 18:33N 53°34' E 000°27'5 4.7
2015-May-23 17:33N 53°37' E 000°33'1 0.6
2015-May-23 16:33N 53°36' E 000°34'1 1.3
2015-May-23 15:33N 53°35' E 000°35'2 2.1
2015-May-23 14:33N 53°33' E 000°36'2 2.4
2015-May-23 13:33N 53°31' E 000°36'2 1.7
2015-May-23 12:33N 53°29' E 000°37'2 2.1
2015-May-23 11:33N 53°29' E 000°40'10 9.5
2015-May-23 10:33N 53°36' E 000°51'1312.1
2015-May-23 09:28N 53°40' E 001°12'12612.7
2015-May-22 23:33N 54°03' E 004°42'1211.8
2015-May-22 22:33N 53°60' E 005°02'1111.2
2015-May-22 21:33N 53°58' E 005°20'1111.1
2015-May-22 20:33N 53°55' E 005°39'1211.6
2015-May-22 19:34N 53°53' E 005°58'1110.9
2015-May-22 18:33N 53°45' E 006°11'1111.2
2015-May-22 17:34N 53°37' E 006°24'1615.6
2015-May-22 16:33N 53°30' E 006°48'1414.0
2015-May-22 15:34N 53°19' E 007°03'5 4.6
2015-May-22 14:34N 53°20' E 007°11'0 0.0
2015-May-22 13:34N 53°20' E 007°11'0 0.0
2015-May-22 12:33N 53°20' E 007°11'0 0.0
2015-May-22 11:30N 53°20' E 007°11'0 0.0
2015-May-22 10:33N 53°20' E 007°11'0 0.0
2015-May-22 09:33N 53°20' E 007°11'0 0.0
2015-May-22 08:33N 53°20' E 007°11'0 0.0
2015-May-22 07:34N 53°20' E 007°11'0 0.0
2015-May-22 06:33N 53°20' E 007°11'0 0.0
2015-May-22 05:24N 53°20' E 007°11'0 0.0
2015-May-22 04:33N 53°20' E 007°11'0 0.0
2015-May-22 03:33N 53°20' E 007°11'0 0.0
2015-May-22 02:28N 53°20' E 007°11'0 0.0
2015-May-22 01:34N 53°20' E 007°11'0 0.0
2015-May-22 00:34N 53°20' E 007°11'0 0.0
2015-May-21 23:33N 53°20' E 007°11'0 0.0
2015-May-21 22:34N 53°20' E 007°11'0 0.0
2015-May-21 21:34N 53°20' E 007°11'0 0.0
2015-May-21 20:34N 53°20' E 007°11'0 0.0
2015-May-21 19:34N 53°20' E 007°11'0 0.0
2015-May-21 18:34N 53°20' E 007°11'0 0.0
2015-May-21 17:34N 53°20' E 007°11'0 0.0
2015-May-21 16:33N 53°20' E 007°11'0 0.0
2015-May-21 15:34N 53°20' E 007°11'0 0.0
2015-May-21 14:33N 53°20' E 007°11'0 0.0
2015-May-21 13:30N 53°20' E 007°11'0 0.0
2015-May-21 12:34N 53°20' E 007°11'0 0.0
2015-May-21 11:33N 53°20' E 007°11'0 0.0
2015-May-21 10:33N 53°20' E 007°11'0 0.0
2015-May-21 09:33N 53°20' E 007°11'0 0.0
2015-May-21 08:30N 53°20' E 007°11'0 0.0
2015-May-21 07:31N 53°20' E 007°11'0 0.0
2015-May-21 06:33N 53°20' E 007°11'0 0.0
2015-May-21 05:34N 53°20' E 007°11'0 0.0
2015-May-21 04:33N 53°20' E 007°11'0 0.0
2015-May-21 03:34N 53°20' E 007°11'0 0.0
2015-May-21 02:33N 53°20' E 007°11'0 0.0
2015-May-21 01:33N 53°20' E 007°11'0 0.0
2015-May-21 00:30N 53°20' E 007°11'0 0.0
2015-May-20 23:33N 53°20' E 007°11'0 0.0
2015-May-20 22:30N 53°20' E 007°11'0 0.0
2015-May-20 21:33N 53°20' E 007°11'0 0.0
2015-May-20 20:33N 53°20' E 007°11'0 0.0
2015-May-20 19:33N 53°20' E 007°11'0 0.0
2015-May-20 18:34N 53°20' E 007°11'0 0.0
2015-May-20 17:33N 53°20' E 007°11'0 0.0
2015-May-20 16:30N 53°20' E 007°11'0 0.0
2015-May-20 15:30N 53°20' E 007°11'0 0.0
2015-May-20 14:33N 53°20' E 007°11'0 0.0
2015-May-20 13:33N 53°20' E 007°11'0 0.0
2015-May-20 12:34N 53°20' E 007°11'0 0.0
2015-May-20 11:34N 53°20' E 007°11'0 0.0
2015-May-20 10:30N 53°20' E 007°11'0 0.0
2015-May-20 09:33N 53°20' E 007°11'0 0.0
2015-May-20 08:33N 53°20' E 007°11'0 0.0
2015-May-20 07:34N 53°20' E 007°11'0 0.0
2015-May-20 06:33N 53°20' E 007°11'0 0.0
2015-May-20 05:33N 53°20' E 007°11'0 0.0
2015-May-20 04:30N 53°20' E 007°11'0 0.0
2015-May-20 03:33N 53°20' E 007°11'0 0.0
2015-May-20 02:33N 53°20' E 007°11'0 0.0
2015-May-20 01:31N 53°20' E 007°11'0 0.0
2015-May-20 00:30N 53°20' E 007°11'0 0.0
2015-May-19 23:30N 53°20' E 007°11'0 0.0
2015-May-19 22:30N 53°20' E 007°11'0 0.0
2015-May-19 21:33N 53°20' E 007°11'0 0.0
2015-May-19 20:33N 53°20' E 007°11'0 0.0
2015-May-19 19:34N 53°20' E 007°11'0 0.0
2015-May-19 18:33N 53°20' E 007°11'0 0.0
2015-May-19 17:33N 53°20' E 007°11'0 0.0
2015-May-19 16:30N 53°20' E 007°11'0 0.0
2015-May-19 15:33N 53°20' E 007°11'0 0.0
2015-May-19 14:33N 53°20' E 007°11'0 0.0
2015-May-19 13:33N 53°20' E 007°11'0 0.0
2015-May-19 12:34N 53°20' E 007°11'0 0.0
2015-May-19 11:33N 53°20' E 007°11'0 0.0
2015-May-19 10:33N 53°20' E 007°11'0 0.0
2015-May-19 09:33N 53°20' E 007°11'0 0.0
2015-May-19 08:34N 53°20' E 007°11'0 0.0
2015-May-19 07:34N 53°20' E 007°11'0 0.0
2015-May-19 06:33N 53°20' E 007°11'1 0.1
2015-May-19 01:17N 53°21' E 007°12'0 0.0
2015-May-18 23:26N 53°21' E 007°12'0 0.0
2015-May-18 22:32N 53°21' E 007°12'0 0.0
2015-May-18 21:29N 53°21' E 007°12'0 0.0
2015-May-18 20:32N 53°21' E 007°12'0 0.0
2015-May-18 19:32N 53°21' E 007°12'0 0.0
2015-May-18 18:32N 53°21' E 007°12'0 0.0
2015-May-18 17:32N 53°21' E 007°12'0 0.0
2015-May-18 16:32N 53°21' E 007°12'0 0.0
2015-May-18 15:32N 53°21' E 007°12'0 0.0
2015-May-18 14:32N 53°21' E 007°12'0 0.0
2015-May-18 13:32N 53°21' E 007°12'0 0.0
2015-May-18 12:32N 53°21' E 007°12'0 0.0
2015-May-18 11:32N 53°21' E 007°12'0 0.0
2015-May-18 10:32N 53°21' E 007°12'0 0.0
2015-May-18 09:32N 53°21' E 007°12'0 0.5
2015-May-18 08:34N 53°20' E 007°11'7 7.0
2015-May-18 07:34N 53°20' E 006°60'1615.7
2015-May-18 06:33N 53°32' E 006°43'1414.3
2015-May-18 05:33N 53°38' E 006°21'6 6.3
2015-May-18 04:33N 53°38' E 006°10'1414.1
2015-May-18 03:34N 53°38' E 005°46'1515.5
2015-May-18 02:34N 53°33' E 005°22'1515.1
2015-May-18 01:33N 53°28' E 004°58'1514.8
2015-May-18 00:34N 53°18' E 004°39'1615.7
2015-May-17 23:34N 53°05' E 004°26'1515.2
2015-May-17 22:34N 52°51' E 004°14'1514.9
2015-May-17 21:34N 52°40' E 003°58'1514.9
2015-May-17 20:33N 52°29' E 003°41'1614.8
2015-May-17 19:29N 52°18' E 003°22'4214.3
2015-May-17 16:33N 51°53' E 002°28'1717.0
2015-May-17 15:33N 51°43' E 002°06'1817.5
2015-May-17 14:33N 51°32' E 001°44'1212.0
2015-May-17 13:33N 51°28' E 001°26'1515.2
2015-May-17 12:33N 51°29' E 001°01'1110.2
2015-May-17 11:29N 51°26' E 000°44'0 0.0
2015-May-17 10:32N 51°26' E 000°44'0 0.0
2015-May-17 09:32N 51°26' E 000°44'0 0.0
2015-May-17 08:29N 51°26' E 000°44'0 0.0
2015-May-17 07:32N 51°26' E 000°44'0 0.0
2015-May-17 06:29N 51°26' E 000°44'0 0.0
2015-May-17 05:33N 51°26' E 000°44'0 0.0
2015-May-17 04:32N 51°26' E 000°44'0 0.0
2015-May-17 03:32N 51°26' E 000°44'0 0.0
2015-May-17 02:32N 51°26' E 000°44'0 0.0
2015-May-17 01:33N 51°26' E 000°44'0 0.0
2015-May-17 00:32N 51°26' E 000°44'0 0.0
2015-May-16 23:33N 51°26' E 000°44'0 0.0
2015-May-16 22:32N 51°26' E 000°44'0 0.0
2015-May-16 21:32N 51°26' E 000°44'0 0.0
2015-May-16 20:23N 51°26' E 000°44'0 0.2
2015-May-16 19:34N 51°26' E 000°44'1212.3
2015-May-16 18:33N 51°30' E 001°03'1414.1
2015-May-16 17:34N 51°28' E 001°26'1212.0
2015-May-16 16:34N 51°32' E 001°44'1616.4
2015-May-16 15:34N 51°43' E 002°03'7715.3
2015-May-16 10:31N 52°38' E 003°30'1616.6
2015-May-16 09:33N 52°51' E 003°47'1616.5
2015-May-16 08:33N 53°03' E 004°06'3115.3
2015-May-16 06:32N 53°27' E 004°38'1313.5
2015-May-16 05:33N 53°33' E 004°58'1313.0
2015-May-16 04:33N 53°37' E 005°19'1313.4
2015-May-16 03:33N 53°41' E 005°40'1414.2
2015-May-16 02:33N 53°45' E 006°03'1212.2
2015-May-16 01:33N 53°39' E 006°21'1212.4
2015-May-16 00:33N 53°34' E 006°40'1716.6
2015-May-15 23:33N 53°22' E 006°59'8 7.6
2015-May-15 22:33N 53°20' E 007°11'0 0.5
2015-May-15 21:31N 53°21' E 007°12'0 0.0
2015-May-15 20:31N 53°21' E 007°12'0 0.0
2015-May-15 19:31N 53°21' E 007°12'0 0.0
2015-May-15 18:31N 53°21' E 007°12'0 0.0
2015-May-15 17:31N 53°21' E 007°12'  
Track history (hours):
 
Tides and Currents Weather Stations Pressure Air Temp Water Temp Dewpoint Dewpoint Depression Visibility Wind Speed Wind Dir Waves Ship Positions

African Highway

Last reported at 2015-May-25 17:31 UTC. Time now 2015-May-25 17:39 UTC.
Position N 53°20' E 007°10'.

Length 154.5 m; beam 27.6 m.

Type: Cargo ship. MMSI: 353633000.

Date/timePositionNaut miles runAvg speedWind from/ knotsBaromVisibWave heightAir tempDewpointWater temp
2015-May-25 17:31N 53°20' E 007°10'0 0.0
2015-May-25 16:28N 53°20' E 007°10'2 2.3
2015-May-25 15:33N 53°20' E 007°06'1413.9
2015-May-25 14:33N 53°29' E 006°49'1616.2
2015-May-25 13:33N 53°37' E 006°25'9 9.0
2015-May-25 12:33N 53°38' E 006°10'9 9.0
2015-May-25 11:33N 53°42' E 005°56'1514.7
2015-May-25 10:33N 53°50' E 005°36'1716.5
2015-May-25 09:33N 53°55' E 005°09'1615.9
2015-May-25 08:33N 53°59' E 004°43'14315.3
2015-May-24 23:12N 53°34' E 000°44'1015.5
2015-May-24 22:34N 53°32' E 000°28'1211.8
2015-May-24 21:33N 53°33' E 000°08'8 7.6
2015-May-24 20:34N 53°35' W 000°04'0 0.0
2015-May-24 19:31N 53°35' W 000°04'0 0.0
2015-May-24 18:31N 53°35' W 000°04'0 0.0
2015-May-24 17:31N 53°35' W 000°04'0 0.0
2015-May-24 16:31N 53°35' W 000°04'0 0.0
2015-May-24 15:31N 53°35' W 000°04'0 0.0
2015-May-24 14:31N 53°35' W 000°04'0 0.0
2015-May-24 13:31N 53°35' W 000°04'0 0.0
2015-May-24 12:31N 53°35' W 000°04'0 0.0
2015-May-24 11:31N 53°35' W 000°04'0 0.0
2015-May-24 10:31N 53°35' W 000°04'0 0.0
2015-May-24 09:31N 53°35' W 000°04'0 0.0
2015-May-24 08:31N 53°35' W 000°04'0 0.0
2015-May-24 07:31N 53°35' W 000°04'0 0.0
2015-May-24 06:31N 53°35' W 000°04'0 0.0
2015-May-24 05:31N 53°35' W 000°04'0 0.0
2015-May-24 04:31N 53°35' W 000°04'0 0.0
2015-May-24 03:31N 53°35' W 000°04'0 0.0
2015-May-24 02:31N 53°35' W 000°04'0 0.0
2015-May-24 01:31N 53°35' W 000°04'0 0.0
2015-May-24 00:31N 53°35' W 000°04'0 0.0
2015-May-23 23:31N 53°35' W 000°04'0 0.0
2015-May-23 22:31N 53°35' W 000°04'0 0.0
2015-May-23 21:31N 53°35' W 000°04'2 2.5
2015-May-23 20:33N 53°35' W 000°00'10 9.7
2015-May-23 19:33N 53°33' E 000°16'7 6.8
2015-May-23 18:33N 53°34' E 000°27'5 4.7
2015-May-23 17:33N 53°37' E 000°33'1 0.6
2015-May-23 16:33N 53°36' E 000°34'1 1.3
2015-May-23 15:33N 53°35' E 000°35'2 2.1
2015-May-23 14:33N 53°33' E 000°36'2 2.4
2015-May-23 13:33N 53°31' E 000°36'2 1.7
2015-May-23 12:33N 53°29' E 000°37'2 2.1
2015-May-23 11:33N 53°29' E 000°40'10 9.5
2015-May-23 10:33N 53°36' E 000°51'1312.1
2015-May-23 09:28N 53°40' E 001°12'12612.7
2015-May-22 23:33N 54°03' E 004°42'1211.8
2015-May-22 22:33N 53°60' E 005°02'1111.2
2015-May-22 21:33N 53°58' E 005°20'1111.1
2015-May-22 20:33N 53°55' E 005°39'1211.6
2015-May-22 19:34N 53°53' E 005°58'1110.9
2015-May-22 18:33N 53°45' E 006°11'1111.2
2015-May-22 17:34N 53°37' E 006°24'1615.6
2015-May-22 16:33N 53°30' E 006°48'1414.0
2015-May-22 15:34N 53°19' E 007°03'5 4.6
2015-May-22 14:34N 53°20' E 007°11'0 0.0
2015-May-22 13:34N 53°20' E 007°11'0 0.0
2015-May-22 12:33N 53°20' E 007°11'0 0.0
2015-May-22 11:30N 53°20' E 007°11'0 0.0
2015-May-22 10:33N 53°20' E 007°11'0 0.0
2015-May-22 09:33N 53°20' E 007°11'0 0.0
2015-May-22 08:33N 53°20' E 007°11'0 0.0
2015-May-22 07:34N 53°20' E 007°11'0 0.0
2015-May-22 06:33N 53°20' E 007°11'0 0.0
2015-May-22 05:24N 53°20' E 007°11'0 0.0
2015-May-22 04:33N 53°20' E 007°11'0 0.0
2015-May-22 03:33N 53°20' E 007°11'0 0.0
2015-May-22 02:28N 53°20' E 007°11'0 0.0
2015-May-22 01:34N 53°20' E 007°11'0 0.0
2015-May-22 00:34N 53°20' E 007°11'0 0.0
2015-May-21 23:33N 53°20' E 007°11'0 0.0
2015-May-21 22:34N 53°20' E 007°11'0 0.0
2015-May-21 21:34N 53°20' E 007°11'0 0.0
2015-May-21 20:34N 53°20' E 007°11'0 0.0
2015-May-21 19:34N 53°20' E 007°11'0 0.0
2015-May-21 18:34N 53°20' E 007°11'0 0.0
2015-May-21 17:34N 53°20' E 007°11'0 0.0
2015-May-21 16:33N 53°20' E 007°11'0 0.0
2015-May-21 15:34N 53°20' E 007°11'0 0.0
2015-May-21 14:33N 53°20' E 007°11'0 0.0
2015-May-21 13:30N 53°20' E 007°11'0 0.0
2015-May-21 12:34N 53°20' E 007°11'0 0.0
2015-May-21 11:33N 53°20' E 007°11'0 0.0
2015-May-21 10:33N 53°20' E 007°11'0 0.0
2015-May-21 09:33N 53°20' E 007°11'0 0.0
2015-May-21 08:30N 53°20' E 007°11'0 0.0
2015-May-21 07:31N 53°20' E 007°11'0 0.0
2015-May-21 06:33N 53°20' E 007°11'0 0.0
2015-May-21 05:34N 53°20' E 007°11'0 0.0
2015-May-21 04:33N 53°20' E 007°11'0 0.0
2015-May-21 03:34N 53°20' E 007°11'0 0.0
2015-May-21 02:33N 53°20' E 007°11'0 0.0
2015-May-21 01:33N 53°20' E 007°11'0 0.0
2015-May-21 00:30N 53°20' E 007°11'0 0.0
2015-May-20 23:33N 53°20' E 007°11'0 0.0
2015-May-20 22:30N 53°20' E 007°11'0 0.0
2015-May-20 21:33N 53°20' E 007°11'0 0.0
2015-May-20 20:33N 53°20' E 007°11'0 0.0
2015-May-20 19:33N 53°20' E 007°11'0 0.0
2015-May-20 18:34N 53°20' E 007°11'0 0.0
2015-May-20 17:33N 53°20' E 007°11'0 0.0
2015-May-20 16:30N 53°20' E 007°11'0 0.0
2015-May-20 15:30N 53°20' E 007°11'0 0.0
2015-May-20 14:33N 53°20' E 007°11'0 0.0
2015-May-20 13:33N 53°20' E 007°11'0 0.0
2015-May-20 12:34N 53°20' E 007°11'0 0.0
2015-May-20 11:34N 53°20' E 007°11'0 0.0
2015-May-20 10:30N 53°20' E 007°11'0 0.0
2015-May-20 09:33N 53°20' E 007°11'0 0.0
2015-May-20 08:33N 53°20' E 007°11'0 0.0
2015-May-20 07:34N 53°20' E 007°11'0 0.0
2015-May-20 06:33N 53°20' E 007°11'0 0.0
2015-May-20 05:33N 53°20' E 007°11'0 0.0
2015-May-20 04:30N 53°20' E 007°11'0 0.0
2015-May-20 03:33N 53°20' E 007°11'0 0.0
2015-May-20 02:33N 53°20' E 007°11'0 0.0
2015-May-20 01:31N 53°20' E 007°11'0 0.0
2015-May-20 00:30N 53°20' E 007°11'0 0.0
2015-May-19 23:30N 53°20' E 007°11'0 0.0
2015-May-19 22:30N 53°20' E 007°11'0 0.0
2015-May-19 21:33N 53°20' E 007°11'0 0.0
2015-May-19 20:33N 53°20' E 007°11'0 0.0
2015-May-19 19:34N 53°20' E 007°11'0 0.0
2015-May-19 18:33N 53°20' E 007°11'0 0.0
2015-May-19 17:33N 53°20' E 007°11'0 0.0
2015-May-19 16:30N 53°20' E 007°11'0 0.0
2015-May-19 15:33N 53°20' E 007°11'0 0.0
2015-May-19 14:33N 53°20' E 007°11'0 0.0
2015-May-19 13:33N 53°20' E 007°11'0 0.0
2015-May-19 12:34N 53°20' E 007°11'0 0.0
2015-May-19 11:33N 53°20' E 007°11'0 0.0
2015-May-19 10:33N 53°20' E 007°11'0 0.0
2015-May-19 09:33N 53°20' E 007°11'0 0.0
2015-May-19 08:34N 53°20' E 007°11'0 0.0
2015-May-19 07:34N 53°20' E 007°11'0 0.0
2015-May-19 06:33N 53°20' E 007°11'1 0.1
2015-May-19 01:17N 53°21' E 007°12'0 0.0
2015-May-18 23:26N 53°21' E 007°12'0 0.0
2015-May-18 22:32N 53°21' E 007°12'0 0.0
2015-May-18 21:29N 53°21' E 007°12'0 0.0
2015-May-18 20:32N 53°21' E 007°12'0 0.0
2015-May-18 19:32N 53°21' E 007°12'0 0.0
2015-May-18 18:32N 53°21' E 007°12'0 0.0
2015-May-18 17:32N 53°21' E 007°12'0 0.0
2015-May-18 16:32N 53°21' E 007°12'0 0.0
2015-May-18 15:32N 53°21' E 007°12'0 0.0
2015-May-18 14:32N 53°21' E 007°12'0 0.0
2015-May-18 13:32N 53°21' E 007°12'0 0.0
2015-May-18 12:32N 53°21' E 007°12'0 0.0
2015-May-18 11:32N 53°21' E 007°12'0 0.0
2015-May-18 10:32N 53°21' E 007°12'0 0.0
2015-May-18 09:32N 53°21' E 007°12'0 0.5
2015-May-18 08:34N 53°20' E 007°11'7 7.0
2015-May-18 07:34N 53°20' E 006°60'1615.7
2015-May-18 06:33N 53°32' E 006°43'1414.3
2015-May-18 05:33N 53°38' E 006°21'6 6.3
2015-May-18 04:33N 53°38' E 006°10'1414.1
2015-May-18 03:34N 53°38' E 005°46'1515.5
2015-May-18 02:34N 53°33' E 005°22'1515.1
2015-May-18 01:33N 53°28' E 004°58'1514.8
2015-May-18 00:34N 53°18' E 004°39'1615.7
2015-May-17 23:34N 53°05' E 004°26'1515.2
2015-May-17 22:34N 52°51' E 004°14'1514.9
2015-May-17 21:34N 52°40' E 003°58'1514.9
2015-May-17 20:33N 52°29' E 003°41'1614.8
2015-May-17 19:29N 52°18' E 003°22'4214.3
2015-May-17 16:33N 51°53' E 002°28'1717.0
2015-May-17 15:33N 51°43' E 002°06'1817.5
2015-May-17 14:33N 51°32' E 001°44'1212.0
2015-May-17 13:33N 51°28' E 001°26'1515.2
2015-May-17 12:33N 51°29' E 001°01'1110.2
2015-May-17 11:29N 51°26' E 000°44'0 0.0
2015-May-17 10:32N 51°26' E 000°44'0 0.0
2015-May-17 09:32N 51°26' E 000°44'0 0.0
2015-May-17 08:29N 51°26' E 000°44'0 0.0
2015-May-17 07:32N 51°26' E 000°44'0 0.0
2015-May-17 06:29N 51°26' E 000°44'0 0.0
2015-May-17 05:33N 51°26' E 000°44'0 0.0
2015-May-17 04:32N 51°26' E 000°44'0 0.0
2015-May-17 03:32N 51°26' E 000°44'0 0.0
2015-May-17 02:32N 51°26' E 000°44'0 0.0
2015-May-17 01:33N 51°26' E 000°44'0 0.0
2015-May-17 00:32N 51°26' E 000°44'0 0.0
2015-May-16 23:33N 51°26' E 000°44'0 0.0
2015-May-16 22:32N 51°26' E 000°44'0 0.0
2015-May-16 21:32N 51°26' E 000°44'0 0.0
2015-May-16 20:23N 51°26' E 000°44'0 0.2
2015-May-16 19:34N 51°26' E 000°44'1212.3
2015-May-16 18:33N 51°30' E 001°03'1414.1
2015-May-16 17:34N 51°28' E 001°26'1212.0
2015-May-16 16:34N 51°32' E 001°44'1616.4
2015-May-16 15:34N 51°43' E 002°03'7715.3
2015-May-16 10:31N 52°38' E 003°30'1616.6
2015-May-16 09:33N 52°51' E 003°47'1616.5
2015-May-16 08:33N 53°03' E 004°06'3115.3
2015-May-16 06:32N 53°27' E 004°38'1313.5
2015-May-16 05:33N 53°33' E 004°58'1313.0
2015-May-16 04:33N 53°37' E 005°19'1313.4
2015-May-16 03:33N 53°41' E 005°40'1414.2
2015-May-16 02:33N 53°45' E 006°03'1212.2
2015-May-16 01:33N 53°39' E 006°21'1212.4
2015-May-16 00:33N 53°34' E 006°40'1716.6
2015-May-15 23:33N 53°22' E 006°59'8 7.6
2015-May-15 22:33N 53°20' E 007°11'0 0.5
2015-May-15 21:31N 53°21' E 007°12'0 0.0
2015-May-15 20:31N 53°21' E 007°12'0 0.0
2015-May-15 19:31N 53°21' E 007°12'0 0.0
2015-May-15 18:31N 53°21' E 007°12'0 0.0
2015-May-15 17:31N 53°21' E 007°12'  

Dump ship's entire track history